sensor_id;sensor_type;location;lat;lon;timestamp;pressure;altitude;pressure_sealevel;temperature;humidity
47374;BME280;33123;50.118;10.272;2022-12-07T00:01:50;97638.03;;;5.22;69.69
47374;BME280;33123;50.118;10.272;2022-12-07T00:04:17;97632.38;;;5.25;69.65
47374;BME280;33123;50.118;10.272;2022-12-07T00:06:46;97629.97;;;5.24;69.60
47374;BME280;33123;50.118;10.272;2022-12-07T00:09:14;97632.00;;;5.22;69.43
47374;BME280;33123;50.118;10.272;2022-12-07T00:11:41;97622.13;;;5.24;69.40
47374;BME280;33123;50.118;10.272;2022-12-07T00:14:11;97615.09;;;5.24;69.14
47374;BME280;33123;50.118;10.272;2022-12-07T00:16:39;97611.75;;;5.17;68.82
47374;BME280;33123;50.118;10.272;2022-12-07T00:19:06;97611.91;;;5.22;69.14
47374;BME280;33123;50.118;10.272;2022-12-07T00:21:35;97613.34;;;5.18;69.10
47374;BME280;33123;50.118;10.272;2022-12-07T00:24:03;97616.97;;;5.17;68.79
47374;BME280;33123;50.118;10.272;2022-12-07T00:26:32;97620.56;;;5.16;69.18
47374;BME280;33123;50.118;10.272;2022-12-07T00:29:00;97611.13;;;5.15;69.16
47374;BME280;33123;50.118;10.272;2022-12-07T00:31:28;97614.78;;;5.14;68.79
47374;BME280;33123;50.118;10.272;2022-12-07T00:33:57;97602.72;;;5.13;68.57
47374;BME280;33123;50.118;10.272;2022-12-07T00:36:24;97595.09;;;5.12;68.87
47374;BME280;33123;50.118;10.272;2022-12-07T00:38:52;97593.13;;;5.07;69.13
47374;BME280;33123;50.118;10.272;2022-12-07T00:41:20;97587.53;;;5.03;68.85
47374;BME280;33123;50.118;10.272;2022-12-07T00:43:48;97578.88;;;5.03;69.06
47374;BME280;33123;50.118;10.272;2022-12-07T00:46:16;97581.13;;;4.99;68.81
47374;BME280;33123;50.118;10.272;2022-12-07T00:48:43;97583.38;;;4.96;69.02
47374;BME280;33123;50.118;10.272;2022-12-07T00:51:12;97587.41;;;4.92;69.42
47374;BME280;33123;50.118;10.272;2022-12-07T00:53:40;97587.41;;;4.92;69.29
47374;BME280;33123;50.118;10.272;2022-12-07T00:56:08;97585.03;;;4.90;69.42
47374;BME280;33123;50.118;10.272;2022-12-07T00:58:35;97588.84;;;4.88;69.44
47374;BME280;33123;50.118;10.272;2022-12-07T01:01:02;97584.84;;;4.85;69.46
47374;BME280;33123;50.118;10.272;2022-12-07T01:03:29;97580.84;;;4.83;69.59
47374;BME280;33123;50.118;10.272;2022-12-07T01:05:57;97580.84;;;4.83;69.88
47374;BME280;33123;50.118;10.272;2022-12-07T01:08:26;97568.00;;;4.81;69.95
47374;BME280;33123;50.118;10.272;2022-12-07T01:10:58;97572.03;;;4.77;70.00
47374;BME280;33123;50.118;10.272;2022-12-07T01:13:25;97579.69;;;4.79;70.21
47374;BME280;33123;50.118;10.272;2022-12-07T01:15:56;97573.66;;;4.78;69.86
47374;BME280;33123;50.118;10.272;2022-12-07T01:18:23;97573.28;;;4.74;69.84
47374;BME280;33123;50.118;10.272;2022-12-07T01:20:57;97567.09;;;4.69;70.13
47374;BME280;33123;50.118;10.272;2022-12-07T01:23:25;97557.50;;;4.63;70.01
47374;BME280;33123;50.118;10.272;2022-12-07T01:25:54;97530.09;;;4.47;69.86
47374;BME280;33123;50.118;10.272;2022-12-07T01:28:21;97573.31;;;4.68;70.18
47374;BME280;33123;50.118;10.272;2022-12-07T01:30:55;97572.53;;;4.67;70.44
47374;BME280;33123;50.118;10.272;2022-12-07T01:33:21;97571.13;;;4.65;70.54
47374;BME280;33123;50.118;10.272;2022-12-07T01:35:48;97574.53;;;4.65;70.36
47374;BME280;33123;50.118;10.272;2022-12-07T01:38:15;97576.13;;;4.66;70.37
47374;BME280;33123;50.118;10.272;2022-12-07T01:40:43;97574.53;;;4.65;70.22
47374;BME280;33123;50.118;10.272;2022-12-07T01:43:15;97583.97;;;4.66;70.46
47374;BME280;33123;50.118;10.272;2022-12-07T01:45:42;97589.00;;;4.68;70.60
47374;BME280;33123;50.118;10.272;2022-12-07T01:51:19;97587.97;;;4.69;70.27
47374;BME280;33123;50.118;10.272;2022-12-07T01:53:46;97585.38;;;4.69;70.38
47374;BME280;33123;50.118;10.272;2022-12-07T01:56:17;97595.81;;;4.69;70.23
47374;BME280;33123;50.118;10.272;2022-12-07T01:58:47;97593.78;;;4.71;70.49
47374;BME280;33123;50.118;10.272;2022-12-07T02:01:14;97585.75;;;4.72;70.37
47374;BME280;33123;50.118;10.272;2022-12-07T02:03:42;97578.91;;;4.71;70.11
47374;BME280;33123;50.118;10.272;2022-12-07T02:06:12;97557.91;;;4.60;70.00
47374;BME280;33123;50.118;10.272;2022-12-07T02:08:41;97561.91;;;4.62;70.62
47374;BME280;33123;50.118;10.272;2022-12-07T02:11:09;97558.16;;;4.52;71.04
47374;BME280;33123;50.118;10.272;2022-12-07T02:13:39;97551.00;;;4.40;71.24
47374;BME280;33123;50.118;10.272;2022-12-07T02:16:14;97561.78;;;4.50;71.00
47374;BME280;33123;50.118;10.272;2022-12-07T02:18:56;97561.81;;;4.44;71.58
47374;BME280;33123;50.118;10.272;2022-12-07T02:21:34;97559.97;;;4.51;70.98
47374;BME280;33123;50.118;10.272;2022-12-07T02:24:18;97553.16;;;4.50;71.43
47374;BME280;33123;50.118;10.272;2022-12-07T02:27:00;97507.59;;;4.14;71.31
47374;BME280;33123;50.118;10.272;2022-12-07T02:29:35;97544.50;;;4.49;71.13
47374;BME280;33123;50.118;10.272;2022-12-07T02:32:07;97543.31;;;4.52;71.21
47374;BME280;33123;50.118;10.272;2022-12-07T02:34:44;97544.16;;;4.46;71.11
47374;BME280;33123;50.118;10.272;2022-12-07T02:37:20;97549.94;;;4.48;71.36
47374;BME280;33123;50.118;10.272;2022-12-07T02:39:53;97539.94;;;4.45;71.01
47374;BME280;33123;50.118;10.272;2022-12-07T02:42:25;97544.50;;;4.49;71.51
47374;BME280;33123;50.118;10.272;2022-12-07T02:44:56;97546.53;;;4.47;71.45
47374;BME280;33123;50.118;10.272;2022-12-07T02:47:24;97539.34;;;4.43;71.66
47374;BME280;33123;50.118;10.272;2022-12-07T02:49:52;97534.13;;;4.43;71.72
47374;BME280;33123;50.118;10.272;2022-12-07T02:52:40;97541.31;;;4.47;71.44
47374;BME280;33123;50.118;10.272;2022-12-07T02:55:08;97539.09;;;4.51;71.37
47374;BME280;33123;50.118;10.272;2022-12-07T02:57:53;97540.53;;;4.47;71.34
47374;BME280;33123;50.118;10.272;2022-12-07T03:00:23;97540.25;;;4.55;71.85
47374;BME280;33123;50.118;10.272;2022-12-07T03:02:53;97540.69;;;4.52;71.79
47374;BME280;33123;50.118;10.272;2022-12-07T03:05:42;97541.22;;;4.61;71.80
47374;BME280;33123;50.118;10.272;2022-12-07T03:08:15;97534.81;;;4.63;71.90
47374;BME280;33123;50.118;10.272;2022-12-07T03:10:50;97529.41;;;4.58;71.65
47374;BME280;33123;50.118;10.272;2022-12-07T03:13:24;97537.25;;;4.58;71.55
47374;BME280;33123;50.118;10.272;2022-12-07T03:16:25;97536.09;;;4.47;72.60
47374;BME280;33123;50.118;10.272;2022-12-07T03:19:26;97530.09;;;4.47;72.74
47374;BME280;33123;50.118;10.272;2022-12-07T03:21:55;97529.25;;;4.53;72.56
47374;BME280;33123;50.118;10.272;2022-12-07T03:24:27;97483.28;;;4.20;72.60
47374;BME280;33123;50.118;10.272;2022-12-07T03:26:59;97522.09;;;4.42;72.99
47374;BME280;33123;50.118;10.272;2022-12-07T03:29:36;97529.25;;;4.53;72.26
47374;BME280;33123;50.118;10.272;2022-12-07T03:32:08;97525.53;;;4.36;72.63
47374;BME280;33123;50.118;10.272;2022-12-07T03:34:45;97520.53;;;4.34;72.78
47374;BME280;33123;50.118;10.272;2022-12-07T03:37:16;97455.31;;;4.03;72.82
47374;BME280;33123;50.118;10.272;2022-12-07T03:39:49;97527.69;;;4.45;72.58
47374;BME280;33123;50.118;10.272;2022-12-07T03:42:22;97521.69;;;4.45;72.79
47374;BME280;33123;50.118;10.272;2022-12-07T03:44:49;97521.03;;;4.49;72.94
47374;BME280;33123;50.118;10.272;2022-12-07T03:47:22;97519.59;;;4.54;72.84
47374;BME280;33123;50.118;10.272;2022-12-07T03:49:55;97523.19;;;4.59;72.60
47374;BME280;33123;50.118;10.272;2022-12-07T03:52:28;97511.31;;;4.32;73.20
47374;BME280;33123;50.118;10.272;2022-12-07T03:55:00;97513.59;;;4.53;72.88
47374;BME280;33123;50.118;10.272;2022-12-07T03:57:41;97512.75;;;4.59;72.78
47374;BME280;33123;50.118;10.272;2022-12-07T04:00:10;97506.88;;;4.64;72.80
47374;BME280;33123;50.118;10.272;2022-12-07T04:02:39;97514.03;;;4.43;72.88
47374;BME280;33123;50.118;10.272;2022-12-07T04:05:07;97510.72;;;4.61;72.60
47374;BME280;33123;50.118;10.272;2022-12-07T04:07:34;97509.13;;;4.60;72.46
47374;BME280;33123;50.118;10.272;2022-12-07T04:10:01;97508.13;;;4.61;72.09
47374;BME280;33123;50.118;10.272;2022-12-07T04:12:28;97512.09;;;4.64;72.12
47374;BME280;33123;50.118;10.272;2022-12-07T04:14:55;97505.88;;;4.65;72.21
47374;BME280;33123;50.118;10.272;2022-12-07T04:17:21;97511.47;;;4.68;71.85
47374;BME280;33123;50.118;10.272;2022-12-07T04:19:49;97505.00;;;4.71;71.71
47374;BME280;33123;50.118;10.272;2022-12-07T04:22:16;97502.22;;;4.72;71.55
47374;BME280;33123;50.118;10.272;2022-12-07T04:24:43;97500.25;;;4.68;71.76
47374;BME280;33123;50.118;10.272;2022-12-07T04:27:10;97503.41;;;4.70;72.02
47374;BME280;33123;50.118;10.272;2022-12-07T04:29:36;97501.78;;;4.75;71.98
47374;BME280;33123;50.118;10.272;2022-12-07T04:32:03;97500.28;;;4.61;71.60
47374;BME280;33123;50.118;10.272;2022-12-07T04:34:30;97504.06;;;4.65;71.87
47374;BME280;33123;50.118;10.272;2022-12-07T04:36:58;97502.63;;;4.69;71.78
47374;BME280;33123;50.118;10.272;2022-12-07T04:42:40;97508.66;;;4.70;71.76
47374;BME280;33123;50.118;10.272;2022-12-07T04:45:08;97501.44;;;4.65;72.09
47374;BME280;33123;50.118;10.272;2022-12-07T04:47:35;97506.41;;;4.73;71.91
47374;BME280;33123;50.118;10.272;2022-12-07T04:50:02;97501.78;;;4.75;71.64
47374;BME280;33123;50.118;10.272;2022-12-07T04:52:30;97496.56;;;4.75;72.23
47374;BME280;33123;50.118;10.272;2022-12-07T04:54:56;97497.97;;;4.71;72.12
47374;BME280;33123;50.118;10.272;2022-12-07T04:57:23;97497.25;;;4.64;72.43
47374;BME280;33123;50.118;10.272;2022-12-07T04:59:50;97496.03;;;4.67;72.39
47374;BME280;33123;50.118;10.272;2022-12-07T05:02:16;97497.19;;;4.71;72.23
47374;BME280;33123;50.118;10.272;2022-12-07T05:04:43;97495.38;;;4.71;72.25
47374;BME280;33123;50.118;10.272;2022-12-07T05:10:51;97504.81;;;4.72;72.14
47374;BME280;33123;50.118;10.272;2022-12-07T05:13:17;97496.56;;;4.75;72.43
47374;BME280;33123;50.118;10.272;2022-12-07T05:15:44;97502.50;;;4.58;72.59
47374;BME280;33123;50.118;10.272;2022-12-07T05:18:12;97499.38;;;4.74;72.19
47374;BME280;33123;50.118;10.272;2022-12-07T05:20:39;97497.19;;;4.71;72.16
47374;BME280;33123;50.118;10.272;2022-12-07T05:23:05;97493.09;;;4.57;72.67
47374;BME280;33123;50.118;10.272;2022-12-07T05:25:32;97490.75;;;4.73;72.43
47374;BME280;33123;50.118;10.272;2022-12-07T05:28:18;97482.47;;;4.76;72.31
47374;BME280;33123;50.118;10.272;2022-12-07T05:30:45;97491.31;;;4.75;72.49
47374;BME280;33123;50.118;10.272;2022-12-07T05:33:12;97491.84;;;4.59;72.71
47374;BME280;33123;50.118;10.272;2022-12-07T05:35:38;97487.75;;;4.70;72.39
47374;BME280;33123;50.118;10.272;2022-12-07T05:38:05;97493.94;;;4.50;72.93
47374;BME280;33123;50.118;10.272;2022-12-07T05:40:32;97493.25;;;4.62;72.80
47374;BME280;33123;50.118;10.272;2022-12-07T05:42:58;97487.69;;;4.76;72.67
47374;BME280;33123;50.118;10.272;2022-12-07T05:45:26;97492.72;;;4.78;72.40
47374;BME280;33123;50.118;10.272;2022-12-07T05:47:53;97486.03;;;4.82;72.54
47374;BME280;33123;50.118;10.272;2022-12-07T05:50:20;97488.31;;;4.79;72.45
47374;BME280;33123;50.118;10.272;2022-12-07T05:52:47;97488.19;;;4.67;72.77
47374;BME280;33123;50.118;10.272;2022-12-07T05:55:13;97488.56;;;4.70;73.10
47374;BME280;33123;50.118;10.272;2022-12-07T05:57:40;97488.50;;;4.77;72.88
47374;BME280;33123;50.118;10.272;2022-12-07T06:00:28;97483.25;;;4.84;72.71
47374;BME280;33123;50.118;10.272;2022-12-07T06:02:54;97486.09;;;4.75;72.60
47374;BME280;33123;50.118;10.272;2022-12-07T06:05:20;97491.94;;;4.78;72.41
47374;BME280;33123;50.118;10.272;2022-12-07T06:07:47;97486.81;;;4.89;72.50
47374;BME280;33123;50.118;10.272;2022-12-07T06:10:14;97488.63;;;4.64;73.35
47374;BME280;33123;50.118;10.272;2022-12-07T06:12:40;97489.72;;;4.74;72.80
47374;BME280;33123;50.118;10.272;2022-12-07T06:15:09;97491.16;;;4.70;72.86
47374;BME280;33123;50.118;10.272;2022-12-07T06:17:39;97495.28;;;4.85;72.81
47374;BME280;33123;50.118;10.272;2022-12-07T06:20:06;97494.84;;;4.88;72.72
47374;BME280;33123;50.118;10.272;2022-12-07T06:22:33;97493.47;;;4.85;72.65
47374;BME280;33123;50.118;10.272;2022-12-07T06:25:00;97488.47;;;4.84;72.64
47374;BME280;33123;50.118;10.272;2022-12-07T06:27:26;97489.78;;;4.93;72.48
47374;BME280;33123;50.118;10.272;2022-12-07T06:29:53;97490.31;;;5.01;72.12
47374;BME280;33123;50.118;10.272;2022-12-07T06:32:19;97486.03;;;4.82;72.73
47374;BME280;33123;50.118;10.272;2022-12-07T06:34:47;97484.72;;;4.98;72.29
47374;BME280;33123;50.118;10.272;2022-12-07T06:37:14;97484.44;;;5.06;72.22
47374;BME280;33123;50.118;10.272;2022-12-07T06:39:41;97481.03;;;5.06;72.32
47374;BME280;33123;50.118;10.272;2022-12-07T06:42:07;97484.72;;;4.98;72.17
47374;BME280;33123;50.118;10.272;2022-12-07T06:44:34;97478.19;;;5.07;71.92
47374;BME280;33123;50.118;10.272;2022-12-07T06:47:01;97479.38;;;5.11;71.85
47374;BME280;33123;50.118;10.272;2022-12-07T06:49:27;97479.94;;;5.13;72.12
47374;BME280;33123;50.118;10.272;2022-12-07T06:51:55;97485.41;;;5.12;71.79
47374;BME280;33123;50.118;10.272;2022-12-07T06:54:22;97480.75;;;5.14;72.02
47374;BME280;33123;50.118;10.272;2022-12-07T06:56:49;97480.31;;;5.17;72.03
47374;BME280;33123;50.118;10.272;2022-12-07T06:59:15;97478.50;;;5.17;71.85
47374;BME280;33123;50.118;10.272;2022-12-07T07:01:42;97479.41;;;5.04;72.24
47374;BME280;33123;50.118;10.272;2022-12-07T07:04:09;97486.19;;;5.12;71.90
47374;BME280;33123;50.118;10.272;2022-12-07T07:06:35;97481.31;;;5.16;71.95
47374;BME280;33123;50.118;10.272;2022-12-07T07:09:03;97488.97;;;5.17;71.72
47374;BME280;33123;50.118;10.272;2022-12-07T07:11:30;97495.94;;;5.23;71.85
47374;BME280;33123;50.118;10.272;2022-12-07T07:13:57;97493.31;;;5.23;71.71
47374;BME280;33123;50.118;10.272;2022-12-07T07:16:27;97487.66;;;5.26;71.88
47374;BME280;33123;50.118;10.272;2022-12-07T07:18:54;97500.28;;;5.29;71.69
47374;BME280;33123;50.118;10.272;2022-12-07T07:21:20;97498.47;;;5.30;71.64
47374;BME280;33123;50.118;10.272;2022-12-07T07:23:47;97499.72;;;5.27;71.30
47374;BME280;33123;50.118;10.272;2022-12-07T07:26:15;97498.38;;;5.18;71.64
47374;BME280;33123;50.118;10.272;2022-12-07T07:28:42;97494.50;;;5.27;71.46
47374;BME280;33123;50.118;10.272;2022-12-07T07:31:08;97500.84;;;5.32;71.65
47374;BME280;33123;50.118;10.272;2022-12-07T07:33:35;97500.28;;;5.29;71.49
47374;BME280;33123;50.118;10.272;2022-12-07T07:36:02;97496.88;;;5.29;71.93
47374;BME280;33123;50.118;10.272;2022-12-07T07:38:28;97508.03;;;5.18;71.92
47374;BME280;33123;50.118;10.272;2022-12-07T07:40:55;97499.41;;;5.17;72.47
47374;BME280;33123;50.118;10.272;2022-12-07T07:43:23;97500.34;;;5.23;72.33
47374;BME280;33123;50.118;10.272;2022-12-07T07:45:49;97493.88;;;5.25;71.96
47374;BME280;33123;50.118;10.272;2022-12-07T07:48:16;97499.25;;;5.30;71.91
47374;BME280;33123;50.118;10.272;2022-12-07T07:50:42;97485.75;;;5.15;72.33
47374;BME280;33123;50.118;10.272;2022-12-07T07:53:09;97499.84;;;5.33;72.07
47374;BME280;33123;50.118;10.272;2022-12-07T07:55:36;97499.25;;;5.30;72.32
47374;BME280;33123;50.118;10.272;2022-12-07T07:58:02;97501.22;;;5.35;71.94
47374;BME280;33123;50.118;10.272;2022-12-07T08:00:30;97496.81;;;5.36;71.92
47374;BME280;33123;50.118;10.272;2022-12-07T08:02:57;97509.56;;;5.44;71.90
47374;BME280;33123;50.118;10.272;2022-12-07T08:05:24;97516.41;;;5.45;72.10
47374;BME280;33123;50.118;10.272;2022-12-07T08:07:51;97513.19;;;5.43;71.78
47374;BME280;33123;50.118;10.272;2022-12-07T08:10:17;97509.66;;;5.37;72.16
47374;BME280;33123;50.118;10.272;2022-12-07T08:12:44;97519.59;;;5.47;71.75
47374;BME280;33123;50.118;10.272;2022-12-07T08:15:30;97517.56;;;5.49;71.71
47374;BME280;33123;50.118;10.272;2022-12-07T08:17:57;97523.09;;;5.41;71.75
47374;BME280;33123;50.118;10.272;2022-12-07T08:20:23;97518.72;;;5.53;71.65
47374;BME280;33123;50.118;10.272;2022-12-07T08:22:50;97521.66;;;5.45;72.18
47374;BME280;33123;50.118;10.272;2022-12-07T08:25:17;97525.22;;;5.50;71.92
47374;BME280;33123;50.118;10.272;2022-12-07T08:27:44;97526.81;;;5.51;71.73
47374;BME280;33123;50.118;10.272;2022-12-07T08:30:11;97518.31;;;5.56;71.77
47374;BME280;33123;50.118;10.272;2022-12-07T08:32:39;97518.81;;;5.46;71.87
47374;BME280;33123;50.118;10.272;2022-12-07T08:35:06;97522.38;;;5.52;71.66
47374;BME280;33123;50.118;10.272;2022-12-07T08:37:33;97526.00;;;5.51;72.14
47374;BME280;33123;50.118;10.272;2022-12-07T08:40:00;97529.19;;;5.53;71.74
47374;BME280;33123;50.118;10.272;2022-12-07T08:42:27;97523.97;;;5.53;72.07
47374;BME280;33123;50.118;10.272;2022-12-07T08:44:55;97529.63;;;5.50;72.24
47374;BME280;33123;50.118;10.272;2022-12-07T08:47:23;97522.28;;;5.59;72.30
47374;BME280;33123;50.118;10.272;2022-12-07T08:49:52;97526.72;;;5.58;72.34
47374;BME280;33123;50.118;10.272;2022-12-07T08:52:20;97529.47;;;5.63;71.77
47374;BME280;33123;50.118;10.272;2022-12-07T08:54:47;97524.59;;;5.48;72.55
47374;BME280;33123;50.118;10.272;2022-12-07T08:57:13;97531.44;;;5.49;72.21
47374;BME280;33123;50.118;10.272;2022-12-07T08:59:40;97527.16;;;5.55;72.22
47374;BME280;33123;50.118;10.272;2022-12-07T09:02:06;97538.47;;;5.49;72.26
47374;BME280;33123;50.118;10.272;2022-12-07T09:04:33;97535.06;;;5.48;72.70
47374;BME280;33123;50.118;10.272;2022-12-07T09:07:01;97531.88;;;5.46;72.94
47374;BME280;33123;50.118;10.272;2022-12-07T09:09:28;97534.41;;;5.35;73.47
47374;BME280;33123;50.118;10.272;2022-12-07T09:11:54;97537.69;;;5.48;73.17
47374;BME280;33123;50.118;10.272;2022-12-07T09:14:22;97542.81;;;5.55;73.28
47374;BME280;33123;50.118;10.272;2022-12-07T09:16:49;97548.81;;;5.62;73.21
47374;BME280;33123;50.118;10.272;2022-12-07T09:19:15;97536.38;;;5.57;72.41
47374;BME280;33123;50.118;10.272;2022-12-07T09:21:42;97544.88;;;5.71;72.90
47374;BME280;33123;50.118;10.272;2022-12-07T09:24:11;97553.00;;;5.81;72.67
47374;BME280;33123;50.118;10.272;2022-12-07T09:26:38;97519.75;;;5.70;72.50
47374;BME280;33123;50.118;10.272;2022-12-07T09:29:05;97545.63;;;5.97;71.91
47374;BME280;33123;50.118;10.272;2022-12-07T09:31:32;97543.16;;;6.02;71.41
47374;BME280;33123;50.118;10.272;2022-12-07T09:34:00;97547.50;;;6.08;71.59
47374;BME280;33123;50.118;10.272;2022-12-07T09:36:27;97543.94;;;6.02;71.23
47374;BME280;33123;50.118;10.272;2022-12-07T09:38:54;97544.88;;;6.08;70.59
47374;BME280;33123;50.118;10.272;2022-12-07T09:41:24;97542.69;;;6.23;70.64
47374;BME280;33123;50.118;10.272;2022-12-07T09:43:52;97543.50;;;6.35;71.08
47374;BME280;33123;50.118;10.272;2022-12-07T09:46:20;97532.03;;;6.37;70.47
47374;BME280;33123;50.118;10.272;2022-12-07T09:48:49;97534.00;;;6.53;70.06
47374;BME280;33123;50.118;10.272;2022-12-07T09:51:18;97525.84;;;6.61;70.43
47374;BME280;33123;50.118;10.272;2022-12-07T09:53:46;97532.69;;;6.74;70.08
47374;BME280;33123;50.118;10.272;2022-12-07T09:56:14;97489.63;;;6.58;69.71
47374;BME280;33123;50.118;10.272;2022-12-07T09:58:44;97519.19;;;7.12;68.30
47374;BME280;33123;50.118;10.272;2022-12-07T10:01:13;97519.72;;;7.61;66.96
47374;BME280;33123;50.118;10.272;2022-12-07T10:03:42;97516.53;;;7.99;65.44
47374;BME280;33123;50.118;10.272;2022-12-07T10:06:12;97513.03;;;8.22;65.51
47374;BME280;33123;50.118;10.272;2022-12-07T10:08:39;97522.91;;;8.03;64.04
47374;BME280;33123;50.118;10.272;2022-12-07T10:11:06;97518.69;;;8.02;63.29
47374;BME280;33123;50.118;10.272;2022-12-07T10:13:37;97517.28;;;7.83;63.19
47374;BME280;33123;50.118;10.272;2022-12-07T10:16:06;97523.22;;;7.78;63.90
47374;BME280;33123;50.118;10.272;2022-12-07T10:18:42;97514.25;;;7.51;64.02
47374;BME280;33123;50.118;10.272;2022-12-07T10:21:14;97467.31;;;7.14;64.53
47374;BME280;33123;50.118;10.272;2022-12-07T10:23:43;97510.38;;;7.41;65.16
47374;BME280;33123;50.118;10.272;2022-12-07T10:26:31;97516.78;;;7.34;64.94
47374;BME280;33123;50.118;10.272;2022-12-07T10:29:02;97523.75;;;7.28;65.61
47374;BME280;33123;50.118;10.272;2022-12-07T10:31:30;97525.47;;;7.11;65.71
47374;BME280;33123;50.118;10.272;2022-12-07T10:33:58;97508.59;;;7.07;65.99
47374;BME280;33123;50.118;10.272;2022-12-07T10:36:29;97505.38;;;7.05;65.87
47374;BME280;33123;50.118;10.272;2022-12-07T10:39:02;97500.50;;;7.08;66.76
47374;BME280;33123;50.118;10.272;2022-12-07T10:41:29;97502.31;;;7.08;65.91
47374;BME280;33123;50.118;10.272;2022-12-07T10:43:57;97507.66;;;7.13;66.12
47374;BME280;33123;50.118;10.272;2022-12-07T10:46:55;97498.34;;;7.17;66.20
47374;BME280;33123;50.118;10.272;2022-12-07T10:49:55;97505.50;;;7.22;65.91
47374;BME280;33123;50.118;10.272;2022-12-07T10:52:53;97494.31;;;7.26;65.69
47374;BME280;33123;50.118;10.272;2022-12-07T10:55:25;97492.16;;;7.35;65.93
47374;BME280;33123;50.118;10.272;2022-12-07T10:58:01;97491.94;;;7.13;64.02
47374;BME280;33123;50.118;10.272;2022-12-07T11:00:37;97491.03;;;7.31;64.31
47374;BME280;33123;50.118;10.272;2022-12-07T11:03:25;97481.69;;;7.23;64.23
47374;BME280;33123;50.118;10.272;2022-12-07T11:06:04;97475.41;;;7.36;64.31
47374;BME280;33123;50.118;10.272;2022-12-07T11:08:49;97480.50;;;7.43;64.08
47374;BME280;33123;50.118;10.272;2022-12-07T11:11:23;97476.75;;;7.50;63.73
47374;BME280;33123;50.118;10.272;2022-12-07T11:13:58;97475.59;;;7.58;63.97
47374;BME280;33123;50.118;10.272;2022-12-07T11:16:38;97472.38;;;7.67;63.79
47374;BME280;33123;50.118;10.272;2022-12-07T11:19:24;97467.16;;;7.56;63.36
47374;BME280;33123;50.118;10.272;2022-12-07T11:21:57;97470.44;;;7.63;63.58
47374;BME280;33123;50.118;10.272;2022-12-07T11:24:29;97470.22;;;7.53;63.10
47374;BME280;33123;50.118;10.272;2022-12-07T11:27:07;97473.97;;;7.68;63.63
47374;BME280;33123;50.118;10.272;2022-12-07T11:32:40;97471.69;;;7.72;63.92
47374;BME280;33123;50.118;10.272;2022-12-07T11:35:19;97464.91;;;7.76;63.92
47374;BME280;33123;50.118;10.272;2022-12-07T11:37:49;97459.22;;;7.79;63.81
47374;BME280;33123;50.118;10.272;2022-12-07T11:40:24;97462.88;;;7.78;63.73
47374;BME280;33123;50.118;10.272;2022-12-07T11:42:58;97459.22;;;7.79;63.90
47374;BME280;33123;50.118;10.272;2022-12-07T11:45:27;97459.22;;;7.79;64.13
47374;BME280;33123;50.118;10.272;2022-12-07T11:47:58;97448.72;;;7.79;63.68
47374;BME280;33123;50.118;10.272;2022-12-07T11:50:45;97446.09;;;7.79;62.91
47374;BME280;33123;50.118;10.272;2022-12-07T11:53:16;97444.63;;;7.83;63.15
47374;BME280;33123;50.118;10.272;2022-12-07T11:55:48;97449.84;;;7.83;63.54
47374;BME280;33123;50.118;10.272;2022-12-07T11:58:38;97449.22;;;7.93;62.29
47374;BME280;33123;50.118;10.272;2022-12-07T12:01:14;97441.44;;;7.98;62.98
47374;BME280;33123;50.118;10.272;2022-12-07T12:03:44;97436.44;;;7.97;62.34
47374;BME280;33123;50.118;10.272;2022-12-07T12:06:13;97432.84;;;7.86;61.63
47374;BME280;33123;50.118;10.272;2022-12-07T12:08:43;97430.66;;;7.94;62.73
47374;BME280;33123;50.118;10.272;2022-12-07T12:11:19;97431.09;;;7.91;62.11
47374;BME280;33123;50.118;10.272;2022-12-07T12:17:12;97433.34;;;7.71;61.88
47374;BME280;33123;50.118;10.272;2022-12-07T12:19:58;97438.00;;;7.81;62.24
47374;BME280;33123;50.118;10.272;2022-12-07T12:22:28;97428.53;;;7.80;62.00
47374;BME280;33123;50.118;10.272;2022-12-07T12:24:59;97426.41;;;7.65;61.52
47374;BME280;33123;50.118;10.272;2022-12-07T12:27:27;97373.59;;;7.45;62.28
47374;BME280;33123;50.118;10.272;2022-12-07T12:29:58;97423.44;;;7.73;62.13
47374;BME280;33123;50.118;10.272;2022-12-07T12:32:34;97422.50;;;7.79;62.59
47374;BME280;33123;50.118;10.272;2022-12-07T12:35:22;97423.53;;;7.78;62.58
47374;BME280;33123;50.118;10.272;2022-12-07T12:37:55;97403.38;;;7.67;62.67
47374;BME280;33123;50.118;10.272;2022-12-07T12:40:41;97412.34;;;7.71;62.87
47374;BME280;33123;50.118;10.272;2022-12-07T12:46:37;97408.34;;;7.80;62.42
47374;BME280;33123;50.118;10.272;2022-12-07T12:49:32;97404.47;;;7.83;62.95
47374;BME280;33123;50.118;10.272;2022-12-07T12:52:00;97405.91;;;7.62;62.19
47374;BME280;33123;50.118;10.272;2022-12-07T12:54:31;97402.28;;;7.80;61.96
47374;BME280;33123;50.118;10.272;2022-12-07T12:57:01;97401.03;;;7.82;62.12
47374;BME280;33123;50.118;10.272;2022-12-07T12:59:32;97403.53;;;7.77;62.03
47374;BME280;33123;50.118;10.272;2022-12-07T13:02:15;97402.72;;;7.60;61.99
47374;BME280;33123;50.118;10.272;2022-12-07T13:04:52;97398.31;;;7.77;62.00
47374;BME280;33123;50.118;10.272;2022-12-07T13:10:46;97353.72;;;7.49;62.34
47374;BME280;33123;50.118;10.272;2022-12-07T13:13:35;97397.28;;;7.78;62.27
47374;BME280;33123;50.118;10.272;2022-12-07T13:22:41;97396.66;;;7.59;61.65
47374;BME280;33123;50.118;10.272;2022-12-07T13:25:11;97395.22;;;7.52;62.66
47374;BME280;33123;50.118;10.272;2022-12-07T13:27:42;97391.22;;;7.49;62.46
47374;BME280;33123;50.118;10.272;2022-12-07T13:30:15;97394.75;;;7.55;62.91
47374;BME280;33123;50.118;10.272;2022-12-07T13:32:43;97394.63;;;7.61;64.26
47374;BME280;33123;50.118;10.272;2022-12-07T13:35:35;97399.72;;;7.68;63.25
47374;BME280;33123;50.118;10.272;2022-12-07T13:38:05;97394.38;;;7.91;63.78
47374;BME280;33123;50.118;10.272;2022-12-07T13:40:32;97389.38;;;8.07;63.06
47374;BME280;33123;50.118;10.272;2022-12-07T13:43:02;97364.81;;;8.13;63.46
47374;BME280;33123;50.118;10.272;2022-12-07T13:45:31;97388.81;;;8.50;61.81
47374;BME280;33123;50.118;10.272;2022-12-07T13:48:24;97388.22;;;8.65;60.79